createdAt,value
2023-08-12T00:02:05.930Z,100955.59
2023-08-12T00:04:34.462Z,100953.91
2023-08-12T00:07:03.045Z,100948.63
2023-08-12T00:09:31.608Z,100949.58
2023-08-12T00:12:00.130Z,100949.16
2023-08-12T00:14:28.726Z,100950.72
2023-08-12T00:16:57.317Z,100950.52
2023-08-12T00:19:26.020Z,100951.77
2023-08-12T00:21:54.568Z,100952.52
2023-08-12T00:24:23.206Z,100953.30
2023-08-12T00:26:51.778Z,100956.60
2023-08-12T00:29:20.498Z,100955.51
2023-08-12T00:31:49.150Z,100961.00
2023-08-12T00:34:18.912Z,100958.79
2023-08-12T00:36:47.533Z,100955.84
2023-08-12T00:39:16.209Z,100963.73
2023-08-12T00:41:44.858Z,100963.38
2023-08-12T00:44:13.700Z,100966.34
2023-08-12T00:46:44.056Z,100970.66
2023-08-12T00:49:14.209Z,100973.23
2023-08-12T00:51:46.118Z,100977.13
2023-08-12T00:54:17.678Z,100980.09
2023-08-12T00:56:46.551Z,100980.02
2023-08-12T00:59:16.143Z,100987.20
2023-08-12T01:01:45.886Z,100988.11
2023-08-12T01:04:14.909Z,100989.33
2023-08-12T01:06:43.548Z,100991.98
2023-08-12T01:09:12.259Z,100988.95
2023-08-12T01:11:48.224Z,100989.90
2023-08-12T01:14:22.120Z,100989.83
2023-08-12T01:16:57.942Z,100988.15
2023-08-12T01:19:38.503Z,100990.28
2023-08-12T01:22:11.993Z,100991.77
2023-08-12T01:24:44.734Z,100989.91
2023-08-12T01:27:14.761Z,100992.55
2023-08-12T01:29:46.813Z,100988.80
2023-08-12T01:32:36.051Z,100991.08
2023-08-12T01:35:38.860Z,100994.29
2023-08-12T01:38:09.605Z,100992.36
2023-08-12T01:40:40.454Z,100993.27
2023-08-12T01:43:09.530Z,100996.29
2023-08-12T01:45:38.400Z,100992.66
2023-08-12T01:48:07.997Z,101000.86
2023-08-12T01:50:36.568Z,101001.63
2023-08-12T01:53:05.797Z,101001.21
2023-08-12T01:55:34.312Z,100997.45
2023-08-12T01:58:02.877Z,100997.33
2023-08-12T02:00:32.260Z,101000.73
2023-08-12T02:03:00.887Z,100998.52
2023-08-12T02:05:29.822Z,101000.35
2023-08-12T02:07:58.487Z,100993.92
2023-08-12T02:10:27.234Z,100995.62
2023-08-12T02:12:56.070Z,100999.55
2023-08-12T02:15:24.800Z,101000.79
2023-08-12T02:17:53.438Z,101007.58
2023-08-12T02:20:22.201Z,101005.77
2023-08-12T02:22:50.740Z,101010.45
2023-08-12T02:25:19.286Z,101012.20
2023-08-12T02:27:47.871Z,101012.77
2023-08-12T02:30:16.446Z,101015.05
2023-08-12T02:32:45.312Z,101013.47
2023-08-12T02:35:14.006Z,101012.79
2023-08-12T02:37:42.545Z,101007.91
2023-08-12T02:40:12.059Z,101006.74
2023-08-12T02:42:40.747Z,101010.09
2023-08-12T02:45:09.793Z,101009.96
2023-08-12T02:47:38.773Z,101010.00
2023-08-12T02:50:08.850Z,101012.63
2023-08-12T02:52:37.544Z,101011.48
2023-08-12T02:55:06.459Z,101014.59
2023-08-12T02:57:35.060Z,101011.45
2023-08-12T03:00:05.392Z,101014.09
2023-08-12T03:02:34.054Z,101016.16
2023-08-12T03:05:02.626Z,101017.08
2023-08-12T03:07:31.329Z,101019.46
2023-08-12T03:10:00.205Z,101020.54
2023-08-12T03:12:28.866Z,101023.65
2023-08-12T03:14:57.617Z,101018.29
2023-08-12T03:17:26.596Z,101018.58
2023-08-12T03:19:55.624Z,101020.86
2023-08-12T03:22:24.240Z,101023.73
2023-08-12T03:24:52.869Z,101020.29
2023-08-12T03:27:21.501Z,101023.77
2023-08-12T03:29:50.895Z,101021.09
2023-08-12T03:32:19.519Z,101022.56
2023-08-12T03:34:48.291Z,101021.79
2023-08-12T03:37:17.073Z,101018.29
2023-08-12T03:39:45.723Z,101025.99
2023-08-12T03:42:14.306Z,101018.23
2023-08-12T03:44:42.869Z,101019.75
2023-08-12T03:47:12.232Z,101023.08
2023-08-12T03:49:41.174Z,101019.40
2023-08-12T03:52:09.960Z,101022.57
2023-08-12T03:54:38.661Z,101022.15
2023-08-12T03:57:07.295Z,101026.58
2023-08-12T03:59:36.200Z,101025.38
2023-08-12T04:02:05.369Z,101021.90
2023-08-12T04:04:34.087Z,101018.23
2023-08-12T04:07:02.682Z,101023.56
2023-08-12T04:09:31.345Z,101025.90
2023-08-12T04:11:59.960Z,101028.51
2023-08-12T04:14:28.507Z,101031.55
2023-08-12T04:16:58.917Z,101029.14
2023-08-12T04:19:27.624Z,101029.98
2023-08-12T04:21:56.183Z,101035.29
2023-08-12T04:24:24.767Z,101038.40
2023-08-12T04:26:53.285Z,101038.40
2023-08-12T04:29:21.842Z,101035.20
2023-08-12T04:31:50.444Z,101032.32
2023-08-12T04:34:19.051Z,101031.14
2023-08-12T04:36:47.753Z,101033.14
2023-08-12T04:39:16.676Z,101033.91
2023-08-12T04:41:45.460Z,101031.67
2023-08-12T04:44:14.131Z,101033.96
2023-08-12T04:46:43.681Z,101034.42
2023-08-12T04:49:12.329Z,101036.31
2023-08-12T04:51:40.974Z,101034.66
2023-08-12T04:54:09.586Z,101032.38
2023-08-12T04:56:38.312Z,101036.27
2023-08-12T04:59:06.763Z,101038.05
2023-08-12T05:01:35.388Z,101037.16
2023-08-12T05:04:04.236Z,101038.11
2023-08-12T05:06:32.782Z,101043.98
2023-08-12T05:09:01.405Z,101046.95
2023-08-12T05:11:30.564Z,101055.27
2023-08-12T05:13:59.912Z,101050.67
2023-08-12T05:16:28.616Z,101053.56
2023-08-12T05:18:57.205Z,101060.13
2023-08-12T05:21:26.132Z,101059.02
2023-08-12T05:23:54.923Z,101055.92
2023-08-12T05:26:23.542Z,101053.63
2023-08-12T05:28:52.130Z,101057.54
2023-08-12T05:31:20.622Z,101059.01
2023-08-12T05:33:49.289Z,101057.80
2023-08-12T05:36:17.903Z,101048.95
2023-08-12T05:38:46.505Z,101047.67
2023-08-12T05:41:15.110Z,101050.06
2023-08-12T05:43:45.025Z,101042.23
2023-08-12T05:46:13.833Z,101039.04
2023-08-12T05:48:42.434Z,101040.30
2023-08-12T05:51:11.722Z,101040.35
2023-08-12T05:53:40.247Z,101039.70
2023-08-12T05:56:08.904Z,101039.21
2023-08-12T05:58:37.546Z,101035.27
2023-08-12T06:01:06.179Z,101032.92
2023-08-12T06:03:34.830Z,101030.36
2023-08-12T06:06:04.632Z,101030.50
2023-08-12T06:08:33.183Z,101033.27
2023-08-12T06:11:01.739Z,101033.73
2023-08-12T06:13:30.256Z,101031.56
2023-08-12T06:15:58.941Z,101036.89
2023-08-12T06:18:27.857Z,101036.70
2023-08-12T06:20:56.551Z,101035.67
2023-08-12T06:23:27.676Z,101035.69
2023-08-12T06:25:56.480Z,101035.08
2023-08-12T06:28:25.055Z,101037.93
2023-08-12T06:30:54.057Z,101034.14
2023-08-12T06:33:22.645Z,101037.64
2023-08-12T06:35:52.712Z,101039.41
2023-08-12T06:38:21.291Z,101031.09
2023-08-12T06:40:49.913Z,101033.44
2023-08-12T06:43:18.526Z,101036.85
2023-08-12T06:45:47.133Z,101035.03
2023-08-12T06:48:15.771Z,101034.70
2023-08-12T06:50:44.949Z,101039.33
2023-08-12T06:53:13.539Z,101038.48
2023-08-12T06:55:46.972Z,101037.25
2023-08-12T06:58:18.574Z,101038.99
2023-08-12T07:00:47.030Z,101028.45
2023-08-12T07:03:15.837Z,101030.80
2023-08-12T07:05:44.505Z,101035.35
2023-08-12T07:08:13.019Z,101038.73
2023-08-12T07:10:42.790Z,101035.18
2023-08-12T07:13:11.351Z,101034.02
2023-08-12T07:15:40.011Z,101028.73
2023-08-12T07:18:08.679Z,101024.52
2023-08-12T07:20:37.282Z,101021.09
2023-08-12T07:23:05.767Z,101021.79
2023-08-12T07:25:34.393Z,101014.64
2023-08-12T07:28:03.031Z,101015.61
2023-08-12T07:30:31.668Z,101017.55
2023-08-12T07:33:00.243Z,101018.23
2023-08-12T07:35:28.953Z,101013.89
2023-08-12T07:37:57.681Z,101016.05
2023-08-12T07:40:26.267Z,101013.17
2023-08-12T07:42:54.889Z,101013.25
2023-08-12T07:45:23.666Z,101017.15
2023-08-12T07:47:52.436Z,101014.27
2023-08-12T07:50:21.263Z,101011.33
2023-08-12T07:52:49.695Z,101011.15
2023-08-12T07:55:18.326Z,101010.84
2023-08-12T07:57:47.131Z,101013.22
2023-08-12T08:00:16.146Z,101013.58
2023-08-12T08:02:44.825Z,101008.41
2023-08-12T08:05:13.584Z,101013.93
2023-08-12T08:07:42.119Z,101011.42
2023-08-12T08:10:11.767Z,101014.38
2023-08-12T08:12:40.404Z,101002.95
2023-08-12T08:15:09.361Z,101011.05
2023-08-12T08:17:39.336Z,100995.59
2023-08-12T08:20:09.435Z,101001.42
2023-08-12T08:22:38.466Z,101005.29
2023-08-12T08:25:08.060Z,101004.83
2023-08-12T08:27:36.744Z,101002.46
2023-08-12T08:30:06.696Z,100998.83
2023-08-12T08:32:35.222Z,101004.51
2023-08-12T08:35:04.246Z,100996.91
2023-08-12T08:37:32.863Z,100987.98
2023-08-12T08:40:01.423Z,100992.40
2023-08-12T08:42:31.038Z,100990.59
2023-08-12T08:45:02.989Z,100988.52
2023-08-12T08:47:32.297Z,100989.55
2023-08-12T08:50:01.915Z,100988.91
2023-08-12T08:52:30.873Z,100988.69
2023-08-12T08:55:04.253Z,100982.95
2023-08-12T08:57:45.989Z,100979.77
2023-08-12T09:00:19.160Z,100988.94
2023-08-12T09:02:49.789Z,100993.74
2023-08-12T09:05:21.944Z,100985.95
2023-08-12T09:07:52.468Z,100989.67
2023-08-12T09:10:22.621Z,100991.32
2023-08-12T09:12:54.141Z,100983.36
2023-08-12T09:15:22.952Z,100985.94
2023-08-12T09:17:51.520Z,100986.70
2023-08-12T09:20:20.278Z,100989.71
2023-08-12T09:22:57.478Z,100982.14
2023-08-12T09:25:28.950Z,100982.66
2023-08-12T09:28:00.636Z,100980.80
2023-08-12T09:30:32.708Z,100978.76
2023-08-12T09:33:08.574Z,100970.11
2023-08-12T09:35:38.017Z,100977.46
2023-08-12T09:38:09.471Z,100980.27
2023-08-12T09:40:38.813Z,100977.84
2023-08-12T09:43:08.091Z,100975.07
2023-08-12T09:45:37.689Z,100971.54
2023-08-12T09:48:09.212Z,100964.38
2023-08-12T09:50:38.479Z,100965.88
2023-08-12T09:53:07.089Z,100972.73
2023-08-12T09:55:37.745Z,100970.55
2023-08-12T09:58:09.287Z,100961.08
2023-08-12T10:00:38.409Z,100964.48
2023-08-12T10:03:07.800Z,100960.33
2023-08-12T10:05:36.569Z,100960.63
2023-08-12T10:08:08.837Z,100950.13
2023-08-12T10:10:37.886Z,100952.45
2023-08-12T10:13:08.827Z,100954.69
2023-08-12T10:15:38.384Z,100951.07
2023-08-12T10:18:11.795Z,100954.67
2023-08-12T10:20:41.626Z,100958.65
2023-08-12T10:23:16.468Z,100958.36
2023-08-12T10:25:46.498Z,100955.89
2023-08-12T10:28:15.179Z,100947.52
2023-08-12T10:30:46.526Z,100947.83
2023-08-12T10:33:19.830Z,100942.79
2023-08-12T10:35:50.311Z,100946.20
2023-08-12T10:38:21.195Z,100944.48
2023-08-12T10:40:51.492Z,100943.52
2023-08-12T10:43:23.069Z,100941.38
2023-08-12T10:45:54.865Z,100932.58
2023-08-12T10:48:26.979Z,100938.62
2023-08-12T10:51:00.416Z,100939.01
2023-08-12T10:53:33.371Z,100942.83
2023-08-12T10:56:06.142Z,100937.58
2023-08-12T10:58:48.734Z,100929.28
2023-08-12T11:01:21.198Z,100928.02
2023-08-12T11:03:50.642Z,100930.89
2023-08-12T11:06:20.947Z,100934.59
2023-08-12T11:08:57.472Z,100932.64
2023-08-12T11:11:26.878Z,100933.86
2023-08-12T11:13:58.152Z,100923.55
2023-08-12T11:16:37.200Z,100923.23
2023-08-12T11:19:05.993Z,100919.69
2023-08-12T11:21:37.790Z,100921.91
2023-08-12T11:24:07.175Z,100918.31
2023-08-12T11:26:35.772Z,100920.66
2023-08-12T11:29:11.395Z,100919.14
2023-08-12T11:31:40.517Z,100914.25
2023-08-12T11:34:09.068Z,100913.89
2023-08-12T11:36:37.696Z,100915.46
2023-08-12T11:39:06.518Z,100914.40
2023-08-12T11:41:38.555Z,100915.44
2023-08-12T11:44:07.168Z,100909.16
2023-08-12T11:46:35.681Z,100911.95
2023-08-12T11:49:04.568Z,100914.73
2023-08-12T11:51:33.879Z,100912.16
2023-08-12T11:54:03.006Z,100912.88
2023-08-12T11:56:31.771Z,100910.70
2023-08-12T11:59:00.963Z,100913.77
2023-08-12T12:01:29.878Z,100908.09
2023-08-12T12:04:02.422Z,100903.73
2023-08-12T12:06:38.330Z,100905.81
2023-08-12T12:09:12.518Z,100909.71
2023-08-12T12:11:42.955Z,100909.69
2023-08-12T12:14:12.233Z,100907.05
2023-08-12T12:16:46.218Z,100907.23
2023-08-12T12:19:24.845Z,100908.05
2023-08-12T12:21:54.776Z,100904.14
2023-08-12T12:24:23.313Z,100902.22
2023-08-12T12:26:51.938Z,100899.66
2023-08-12T12:29:20.514Z,100898.19
2023-08-12T12:31:49.091Z,100895.14
2023-08-12T12:34:18.869Z,100895.25
2023-08-12T12:36:47.487Z,100894.92
2023-08-12T12:39:15.993Z,100898.30
2023-08-12T12:41:46.264Z,100899.44
2023-08-12T12:44:16.957Z,100888.19
2023-08-12T12:46:45.560Z,100889.13
2023-08-12T12:49:14.201Z,100889.45
2023-08-12T12:51:42.811Z,100888.64
2023-08-12T12:54:11.371Z,100888.42
2023-08-12T12:56:40.066Z,100887.70
2023-08-12T12:59:08.701Z,100890.98
2023-08-12T13:01:37.671Z,100886.86
2023-08-12T13:04:06.652Z,100893.33
2023-08-12T13:06:38.286Z,100895.27
2023-08-12T13:09:07.614Z,100897.84
2023-08-12T13:11:36.475Z,100894.45
2023-08-12T13:14:05.583Z,100897.67
2023-08-12T13:16:34.326Z,100892.36
2023-08-12T13:19:03.323Z,100894.38
2023-08-12T13:21:32.972Z,100892.45
2023-08-12T13:24:02.824Z,100891.56
2023-08-12T13:26:31.439Z,100885.39
2023-08-12T13:29:00.062Z,100885.77
2023-08-12T13:31:28.715Z,100879.78
2023-08-12T13:33:57.384Z,100877.00
2023-08-12T13:36:26.067Z,100878.14
2023-08-12T13:38:54.873Z,100877.80
2023-08-12T13:41:23.536Z,100875.64
2023-08-12T13:43:52.224Z,100872.84
2023-08-12T13:46:20.766Z,100870.23
2023-08-12T13:48:49.372Z,100874.73
2023-08-12T13:51:18.077Z,100874.30
2023-08-12T13:53:46.740Z,100878.53
2023-08-12T13:56:16.076Z,100879.66
2023-08-12T13:58:44.671Z,100880.87
2023-08-12T14:01:13.671Z,100881.64
2023-08-12T14:03:42.291Z,100880.17
2023-08-12T14:06:11.138Z,100883.65
2023-08-12T14:08:39.883Z,100881.52
2023-08-12T14:11:08.491Z,100879.58
2023-08-12T14:13:37.239Z,100878.73
2023-08-12T14:16:06.012Z,100882.11
2023-08-12T14:18:34.507Z,100882.64
2023-08-12T14:21:03.093Z,100884.02
2023-08-12T14:23:31.704Z,100884.36
2023-08-12T14:26:00.361Z,100882.17
2023-08-12T14:28:29.008Z,100873.33
2023-08-12T14:30:57.758Z,100867.27
2023-08-12T14:33:27.301Z,100861.57
2023-08-12T14:35:59.169Z,100859.48
2023-08-12T14:38:27.813Z,100860.92
2023-08-12T14:40:56.509Z,100863.42
2023-08-12T14:43:25.127Z,100859.84
2023-08-12T14:45:53.716Z,100859.38
2023-08-12T14:48:22.335Z,100855.84
2023-08-12T14:50:51.098Z,100855.37
2023-08-12T14:53:19.649Z,100853.27
2023-08-12T14:55:49.237Z,100852.47
2023-08-12T14:58:18.164Z,100850.28
2023-08-12T15:00:48.921Z,100849.13
2023-08-12T15:03:17.620Z,100851.27
2023-08-12T15:05:46.271Z,100845.59
2023-08-12T15:08:14.912Z,100845.99
2023-08-12T15:10:43.616Z,100847.80
2023-08-12T15:13:12.151Z,100846.02
2023-08-12T15:15:40.709Z,100846.38
2023-08-12T15:18:09.207Z,100843.14
2023-08-12T15:20:37.867Z,100842.31
2023-08-12T15:23:06.428Z,100848.05
2023-08-12T15:25:35.068Z,100847.15
2023-08-12T15:28:04.281Z,100847.32
2023-08-12T15:30:32.910Z,100846.59
2023-08-12T15:33:01.460Z,100847.39
2023-08-12T15:35:30.076Z,100844.94
2023-08-12T15:37:58.924Z,100844.60
2023-08-12T15:40:27.640Z,100834.83
2023-08-12T15:42:56.235Z,100837.22
2023-08-12T15:45:25.093Z,100834.14
2023-08-12T15:47:55.424Z,100832.33
2023-08-12T15:50:24.145Z,100830.17
2023-08-12T15:52:52.751Z,100830.29
2023-08-12T15:55:21.289Z,100831.49
2023-08-12T15:57:50.208Z,100828.02
2023-08-12T16:00:19.027Z,100826.46
2023-08-12T16:02:47.683Z,100826.06
2023-08-12T16:05:16.324Z,100823.10
2023-08-12T16:07:45.044Z,100825.95
2023-08-12T16:10:13.671Z,100825.85
2023-08-12T16:12:42.243Z,100828.09
2023-08-12T16:15:11.022Z,100828.65
2023-08-12T16:17:39.712Z,100834.41
2023-08-12T16:20:09.058Z,100832.67
2023-08-12T16:22:37.665Z,100830.50
2023-08-12T16:25:07.225Z,100833.73
2023-08-12T16:27:35.900Z,100830.89
2023-08-12T16:30:06.086Z,100833.08
2023-08-12T16:32:35.010Z,100829.23
2023-08-12T16:35:04.088Z,100832.73
2023-08-12T16:37:32.663Z,100835.11
2023-08-12T16:40:01.365Z,100840.52
2023-08-12T16:42:30.114Z,100843.96
2023-08-12T16:44:58.794Z,100839.67
2023-08-12T16:47:28.842Z,100841.38
2023-08-12T16:49:59.292Z,100845.59
2023-08-12T16:52:28.063Z,100846.47
2023-08-12T16:54:56.910Z,100848.63
2023-08-12T16:57:25.997Z,100847.23
2023-08-12T16:59:54.646Z,100848.81
2023-08-12T17:02:23.244Z,100847.59
2023-08-12T17:04:52.471Z,100856.34
2023-08-12T17:07:21.255Z,100855.52
2023-08-12T17:09:49.933Z,100854.68
2023-08-12T17:12:18.594Z,100860.30
2023-08-12T17:14:47.280Z,100859.64
2023-08-12T17:17:15.873Z,100864.25
2023-08-12T17:19:44.573Z,100860.20
2023-08-12T17:22:13.285Z,100856.30
2023-08-12T17:24:42.525Z,100859.14
2023-08-12T17:27:11.811Z,100859.78
2023-08-12T17:29:40.497Z,100857.95
2023-08-12T17:32:09.159Z,100863.48
2023-08-12T17:34:37.876Z,100868.47
2023-08-12T17:37:06.584Z,100867.17
2023-08-12T17:39:36.654Z,100868.07
2023-08-12T17:42:05.706Z,100871.05
2023-08-12T17:44:34.476Z,100875.48
2023-08-12T17:47:03.556Z,100875.81
2023-08-12T17:49:32.517Z,100880.86
2023-08-12T17:52:02.439Z,100881.27
2023-08-12T17:54:31.230Z,100883.16
2023-08-12T17:56:59.958Z,100883.29
2023-08-12T17:59:28.860Z,100879.20
2023-08-12T18:01:57.469Z,100884.55
2023-08-12T18:04:26.262Z,100882.95
2023-08-12T18:06:54.818Z,100883.78
2023-08-12T18:09:23.587Z,100887.40
2023-08-12T18:11:52.725Z,100888.06
2023-08-12T18:14:22.644Z,100890.16
2023-08-12T18:16:51.359Z,100891.96
2023-08-12T18:19:20.512Z,100887.69
2023-08-12T18:21:49.205Z,100892.58
2023-08-12T18:24:18.162Z,100891.56
2023-08-12T18:26:47.072Z,100893.15
2023-08-12T18:29:15.622Z,100893.09
2023-08-12T18:31:44.320Z,100893.90
2023-08-12T18:34:13.600Z,100898.85
2023-08-12T18:36:42.674Z,100896.88
2023-08-12T18:39:11.267Z,100900.05
2023-08-12T18:41:39.853Z,100904.69
2023-08-12T18:44:08.435Z,100906.27
2023-08-12T18:46:37.110Z,100904.04
2023-08-12T18:49:05.805Z,100906.73
2023-08-12T18:51:34.424Z,100904.35
2023-08-12T18:54:04.793Z,100908.41
2023-08-12T18:56:34.035Z,100911.18
2023-08-12T18:59:02.703Z,100911.51
2023-08-12T19:01:31.458Z,100915.88
2023-08-12T19:03:59.956Z,100917.46
2023-08-12T19:06:28.628Z,100918.40
2023-08-12T19:08:57.216Z,100919.25
2023-08-12T19:11:25.808Z,100920.98
2023-08-12T19:13:55.131Z,100920.17
2023-08-12T19:16:23.713Z,100918.73
2023-08-12T19:18:52.417Z,100921.89
2023-08-12T19:21:20.938Z,100922.89
2023-08-12T19:23:51.719Z,100923.77
2023-08-12T19:26:21.082Z,100929.36
2023-08-12T19:28:49.799Z,100927.95
2023-08-12T19:31:19.170Z,100922.89
2023-08-12T19:33:47.835Z,100928.41
2023-08-12T19:36:16.432Z,100930.29
2023-08-12T19:38:45.338Z,100934.23
2023-08-12T19:41:14.421Z,100928.46
2023-08-12T19:43:43.074Z,100926.55
2023-08-12T19:46:12.376Z,100926.45
2023-08-12T19:48:40.929Z,100929.05
2023-08-12T19:51:09.662Z,100925.61
2023-08-12T19:53:38.209Z,100931.04
2023-08-12T19:56:06.872Z,100930.36
2023-08-12T19:58:35.597Z,100934.36
2023-08-12T20:01:04.359Z,100935.10
2023-08-12T20:03:33.214Z,100934.55
2023-08-12T20:06:01.954Z,100937.73
2023-08-12T20:08:31.032Z,100936.38
2023-08-12T20:10:59.699Z,100935.50
2023-08-12T20:13:28.352Z,100937.11
2023-08-12T20:15:59.212Z,100942.63
2023-08-12T20:18:28.277Z,100944.19
2023-08-12T20:20:56.894Z,100946.63
2023-08-12T20:23:25.472Z,100951.22
2023-08-12T20:25:54.192Z,100951.92
2023-08-12T20:28:22.757Z,100952.44
2023-08-12T20:30:51.375Z,100954.38
2023-08-12T20:33:20.051Z,100953.91
2023-08-12T20:35:48.903Z,100956.40
2023-08-12T20:38:19.477Z,100955.44
2023-08-12T20:40:48.241Z,100954.31
2023-08-12T20:43:17.550Z,100955.23
2023-08-12T20:45:46.150Z,100959.92
2023-08-12T20:48:14.903Z,100959.65
2023-08-12T20:50:44.373Z,100954.98
2023-08-12T20:53:13.069Z,100957.53
2023-08-12T20:55:41.730Z,100957.07
2023-08-12T20:58:10.293Z,100954.48
2023-08-12T21:00:40.888Z,100956.80
2023-08-12T21:03:10.536Z,100955.59
2023-08-12T21:05:39.699Z,100961.96
2023-08-12T21:08:08.716Z,100964.20
2023-08-12T21:10:37.447Z,100964.57
2023-08-12T21:13:06.070Z,100959.39
2023-08-12T21:15:34.698Z,100962.39
2023-08-12T21:18:05.729Z,100967.35
2023-08-12T21:20:34.428Z,100965.10
2023-08-12T21:23:03.768Z,100964.90
2023-08-12T21:25:32.385Z,100963.96
2023-08-12T21:28:01.073Z,100966.73
2023-08-12T21:30:29.884Z,100969.55
2023-08-12T21:32:58.912Z,100977.24
2023-08-12T21:35:27.574Z,100971.18
2023-08-12T21:37:57.818Z,100972.87
2023-08-12T21:40:26.473Z,100971.33
2023-08-12T21:42:55.136Z,100976.20
2023-08-12T21:45:23.724Z,100977.20
2023-08-12T21:47:52.491Z,100980.47
2023-08-12T21:50:21.330Z,100976.61
2023-08-12T21:52:49.984Z,100976.35
2023-08-12T21:55:18.616Z,100975.52
2023-08-12T21:57:47.164Z,100971.48
2023-08-12T22:00:16.211Z,100977.10
2023-08-12T22:02:47.596Z,100977.39
2023-08-12T22:05:17.369Z,100975.45
2023-08-12T22:07:46.108Z,100978.08
2023-08-12T22:10:14.690Z,100977.02
2023-08-12T22:12:43.266Z,100977.40
2023-08-12T22:15:12.655Z,100979.83
2023-08-12T22:17:43.432Z,100979.36
2023-08-12T22:20:15.052Z,100979.46
2023-08-12T22:22:43.690Z,100978.94
2023-08-12T22:25:12.431Z,100977.80
2023-08-12T22:27:41.271Z,100982.20
2023-08-12T22:30:10.229Z,100979.73
2023-08-12T22:32:38.784Z,100979.70
2023-08-12T22:35:09.291Z,100978.86
2023-08-12T22:37:38.386Z,100978.08
2023-08-12T22:40:08.025Z,100978.59
2023-08-12T22:42:36.593Z,100976.99
2023-08-12T22:45:08.703Z,100982.78
2023-08-12T22:47:37.318Z,100985.14
2023-08-12T22:50:07.571Z,100981.77
2023-08-12T22:52:36.161Z,100980.45
2023-08-12T22:55:05.852Z,100981.46
2023-08-12T22:57:34.381Z,100983.45
2023-08-12T23:00:04.730Z,100983.83
2023-08-12T23:02:33.413Z,100983.98
2023-08-12T23:05:01.987Z,100982.23
2023-08-12T23:07:30.502Z,100981.91
2023-08-12T23:10:00.111Z,100985.78
2023-08-12T23:12:29.154Z,100992.85
2023-08-12T23:14:57.790Z,100993.83
2023-08-12T23:17:26.295Z,100995.95
2023-08-12T23:19:54.860Z,100996.77
2023-08-12T23:22:23.504Z,100995.41
2023-08-12T23:24:52.063Z,100997.30
2023-08-12T23:27:20.609Z,101001.04
2023-08-12T23:29:49.253Z,100998.04
2023-08-12T23:32:17.958Z,100998.58
2023-08-12T23:34:46.757Z,100994.21
2023-08-12T23:37:15.413Z,100992.54
2023-08-12T23:39:44.409Z,100989.60
2023-08-12T23:42:14.011Z,100990.59
2023-08-12T23:44:42.808Z,100987.25
2023-08-12T23:47:11.844Z,100986.92
2023-08-12T23:49:40.349Z,100989.02
2023-08-12T23:52:08.916Z,100986.97
2023-08-12T23:54:37.414Z,100992.21
2023-08-12T23:57:06.018Z,100990.08
2023-08-12T23:59:34.690Z,100991.56
